createdAt,value
2023-03-21T00:00:44.570Z,23.66
2023-03-21T00:03:13.051Z,23.62
2023-03-21T00:05:41.068Z,23.65
2023-03-21T00:08:08.740Z,23.66
2023-03-21T00:10:41.254Z,23.66
2023-03-21T00:13:11.037Z,23.67
2023-03-21T00:15:44.351Z,23.67
2023-03-21T00:18:23.329Z,23.67
2023-03-21T00:21:12.663Z,23.66
2023-03-21T00:23:44.417Z,23.66
2023-03-21T00:26:12.154Z,23.66
2023-03-21T00:28:40.495Z,23.66
2023-03-21T00:31:08.261Z,23.68
2023-03-21T00:33:37.300Z,23.68
2023-03-21T00:36:05.761Z,23.68
2023-03-21T00:38:34.628Z,23.66
2023-03-21T00:41:10.996Z,23.68
2023-03-21T00:43:42.200Z,23.68
2023-03-21T00:46:09.341Z,23.68
2023-03-21T00:48:38.053Z,23.67
2023-03-21T00:51:12.510Z,23.69
2023-03-21T00:53:39.571Z,23.69
2023-03-21T00:56:06.893Z,23.67
2023-03-21T00:58:33.971Z,23.68
2023-03-21T01:01:01.062Z,23.68
2023-03-21T01:03:29.633Z,23.69
2023-03-21T01:05:58.177Z,23.68
2023-03-21T01:08:31.130Z,23.69
2023-03-21T01:11:04.251Z,23.65
2023-03-21T01:13:33.090Z,23.56
2023-03-21T01:16:01.759Z,23.56
2023-03-21T01:18:29.953Z,23.51
2023-03-21T01:20:59.807Z,23.50
2023-03-21T01:23:28.001Z,23.47
2023-03-21T01:25:56.310Z,23.51
2023-03-21T01:28:25.484Z,23.46
2023-03-21T01:30:53.549Z,23.45
2023-03-21T01:33:21.375Z,23.45
2023-03-21T01:35:53.418Z,23.41
2023-03-21T01:38:31.236Z,23.42
2023-03-21T01:41:00.584Z,23.24
2023-03-21T01:43:36.583Z,23.32
2023-03-21T01:46:17.392Z,23.36
2023-03-21T01:49:02.464Z,23.38
2023-03-21T01:51:30.650Z,23.38
2023-03-21T01:54:00.082Z,23.40
2023-03-21T01:56:31.890Z,23.38
2023-03-21T01:59:08.698Z,23.37
2023-03-21T02:02:03.947Z,23.41
2023-03-21T02:04:31.897Z,23.46
2023-03-21T02:07:10.575Z,23.50
2023-03-21T02:09:48.325Z,23.50
2023-03-21T02:12:21.509Z,23.52
2023-03-21T02:14:49.807Z,23.53
2023-03-21T02:17:42.489Z,23.48
2023-03-21T02:20:25.127Z,23.50
2023-03-21T02:23:10.528Z,23.51
2023-03-21T02:26:04.013Z,23.50
2023-03-21T02:28:33.488Z,23.52
2023-03-21T02:31:18.460Z,23.57
2023-03-21T02:34:07.674Z,23.58
2023-03-21T02:36:48.563Z,23.58
2023-03-21T02:39:21.678Z,23.59
2023-03-21T02:41:53.006Z,23.58
2023-03-21T02:44:32.254Z,23.59
2023-03-21T02:47:06.665Z,23.60
2023-03-21T02:49:41.542Z,23.61
2023-03-21T02:52:18.698Z,23.60
2023-03-21T02:54:49.965Z,23.59
2023-03-21T02:57:22.818Z,23.60
2023-03-21T02:59:55.489Z,23.60
2023-03-21T03:02:30.310Z,23.61
2023-03-21T03:04:58.756Z,23.60
2023-03-21T03:07:36.718Z,23.59
2023-03-21T03:10:12.049Z,23.60
2023-03-21T03:12:43.266Z,23.60
2023-03-21T03:15:16.912Z,23.62
2023-03-21T03:17:50.550Z,23.60
2023-03-21T03:20:24.755Z,23.54
2023-03-21T03:22:55.624Z,23.54
2023-03-21T03:25:39.500Z,23.45
2023-03-21T03:28:09.873Z,23.42
2023-03-21T03:30:44.729Z,23.51
2023-03-21T03:33:17.289Z,23.55
2023-03-21T03:35:48.127Z,23.58
2023-03-21T03:38:21.385Z,23.59
2023-03-21T03:40:52.938Z,23.62
2023-03-21T03:43:41.891Z,23.61
2023-03-21T03:46:12.458Z,23.63
2023-03-21T03:48:44.638Z,23.63
2023-03-21T03:51:14.786Z,23.61
2023-03-21T03:54:05.029Z,23.62
2023-03-21T03:56:32.244Z,23.63
2023-03-21T03:59:01.827Z,23.65
2023-03-21T04:01:45.928Z,23.63
2023-03-21T04:04:13.838Z,23.62
2023-03-21T04:06:42.707Z,23.63
2023-03-21T04:09:20.473Z,23.64
2023-03-21T04:11:51.078Z,23.63
2023-03-21T04:14:18.821Z,23.66
2023-03-21T04:16:46.260Z,23.69
2023-03-21T04:19:14.323Z,23.67
2023-03-21T04:21:41.728Z,23.65
2023-03-21T04:24:09.128Z,23.68
2023-03-21T04:26:37.859Z,23.68
2023-03-21T04:29:43.159Z,23.73
2023-03-21T04:32:34.601Z,23.74
2023-03-21T04:35:09.289Z,23.72
2023-03-21T04:37:36.377Z,23.72
2023-03-21T04:40:04.726Z,23.66
2023-03-21T04:42:33.870Z,23.65
2023-03-21T04:45:01.170Z,23.61
2023-03-21T04:47:28.401Z,23.62
2023-03-21T04:49:55.852Z,23.65
2023-03-21T04:52:25.433Z,23.69
2023-03-21T04:54:53.361Z,23.70
2023-03-21T04:57:20.624Z,23.69
2023-03-21T04:59:49.180Z,23.71
2023-03-21T05:02:16.288Z,23.72
2023-03-21T05:04:43.935Z,23.70
2023-03-21T05:07:11.235Z,23.71
2023-03-21T05:09:38.447Z,23.70
2023-03-21T05:12:05.892Z,23.73
2023-03-21T05:14:34.034Z,23.72
2023-03-21T05:17:02.730Z,23.67
2023-03-21T05:19:31.709Z,23.70
2023-03-21T05:21:58.801Z,23.70
2023-03-21T05:24:27.578Z,23.70
2023-03-21T05:26:54.854Z,23.69
2023-03-21T05:29:24.256Z,23.64
2023-03-21T05:31:59.977Z,23.69
2023-03-21T05:34:28.572Z,23.72
2023-03-21T05:36:56.010Z,23.63
2023-03-21T05:39:25.739Z,23.73
2023-03-21T05:42:11.215Z,23.64
2023-03-21T05:44:38.342Z,23.67
2023-03-21T05:47:06.529Z,23.68
2023-03-21T05:49:54.938Z,23.68
2023-03-21T05:52:22.827Z,23.74
2023-03-21T05:54:53.070Z,23.76
2023-03-21T05:57:23.335Z,23.70
2023-03-21T06:00:03.201Z,23.75
2023-03-21T06:02:42.376Z,23.75
2023-03-21T06:05:27.625Z,23.76
2023-03-21T06:07:54.900Z,23.77
2023-03-21T06:10:22.005Z,23.81
2023-03-21T06:12:49.682Z,23.82
2023-03-21T06:15:28.227Z,23.84
2023-03-21T06:18:14.264Z,23.79
2023-03-21T06:20:52.875Z,23.76
2023-03-21T06:23:20.054Z,23.78
2023-03-21T06:25:48.677Z,23.71
2023-03-21T06:28:15.882Z,23.99
2023-03-21T06:30:43.981Z,24.02
2023-03-21T06:33:17.032Z,23.92
2023-03-21T06:35:44.798Z,23.82
2023-03-21T06:38:13.383Z,23.79
2023-03-21T06:40:40.696Z,23.79
2023-03-21T06:43:07.986Z,23.83
2023-03-21T06:45:35.725Z,23.92
2023-03-21T06:48:03.081Z,24.10
2023-03-21T06:50:41.402Z,24.04
2023-03-21T06:53:08.721Z,23.98
2023-03-21T06:55:56.031Z,23.94
2023-03-21T06:58:23.592Z,24.05
2023-03-21T07:00:50.994Z,24.07
2023-03-21T07:03:18.771Z,23.96
2023-03-21T07:05:45.969Z,23.59
2023-03-21T07:08:16.338Z,23.80
2023-03-21T07:10:45.591Z,23.82
2023-03-21T07:13:15.700Z,23.83
2023-03-21T07:15:47.462Z,23.88
2023-03-21T07:18:14.606Z,24.16
2023-03-21T07:20:46.980Z,24.06
2023-03-21T07:23:14.089Z,24.21
2023-03-21T07:25:41.559Z,24.13
2023-03-21T07:28:09.381Z,24.48
2023-03-21T07:30:37.978Z,24.29
2023-03-21T07:33:05.086Z,24.20
2023-03-21T07:35:35.956Z,24.13
2023-03-21T07:38:03.882Z,24.04
2023-03-21T07:40:31.086Z,24.03
2023-03-21T07:42:58.391Z,24.37
2023-03-21T07:45:31.198Z,24.30
2023-03-21T07:48:00.956Z,24.19
2023-03-21T07:50:28.137Z,23.94
2023-03-21T07:52:55.372Z,23.86
2023-03-21T07:55:22.501Z,24.00
2023-03-21T07:57:49.815Z,24.05
2023-03-21T08:00:17.503Z,24.32
2023-03-21T08:02:44.693Z,24.18
2023-03-21T08:05:13.356Z,24.13
2023-03-21T08:07:40.414Z,24.09
2023-03-21T08:10:08.201Z,24.06
2023-03-21T08:12:35.310Z,24.05
2023-03-21T08:15:02.655Z,24.23
2023-03-21T08:17:29.789Z,24.41
2023-03-21T08:19:56.971Z,24.25
2023-03-21T08:22:26.317Z,24.21
2023-03-21T08:24:53.421Z,24.18
2023-03-21T08:27:20.933Z,24.19
2023-03-21T08:29:48.060Z,24.13
2023-03-21T08:32:18.377Z,24.43
2023-03-21T08:34:46.241Z,24.21
2023-03-21T08:37:13.433Z,24.15
2023-03-21T08:39:42.102Z,24.13
2023-03-21T08:42:09.350Z,24.11
2023-03-21T08:44:36.608Z,24.10
2023-03-21T08:47:03.698Z,24.22
2023-03-21T08:49:30.757Z,24.40
2023-03-21T08:51:58.166Z,24.25
2023-03-21T08:54:25.262Z,24.18
2023-03-21T08:56:53.826Z,24.13
2023-03-21T08:59:20.915Z,24.02
2023-03-21T09:01:48.152Z,24.08
2023-03-21T09:04:15.564Z,24.52
2023-03-21T09:06:42.783Z,24.34
2023-03-21T09:09:10.237Z,24.31
2023-03-21T09:11:38.520Z,24.24
2023-03-21T09:14:07.090Z,24.42
2023-03-21T09:16:34.581Z,24.49
2023-03-21T09:19:01.920Z,24.45
2023-03-21T09:21:29.049Z,24.42
2023-03-21T09:23:56.402Z,24.43
2023-03-21T09:26:24.651Z,24.37
2023-03-21T09:28:51.731Z,24.64
2023-03-21T09:31:20.505Z,24.94
2023-03-21T09:33:47.611Z,24.74
2023-03-21T09:36:14.883Z,24.65
2023-03-21T09:38:41.992Z,24.52
2023-03-21T09:41:18.479Z,24.44
2023-03-21T09:43:56.237Z,24.82
2023-03-21T09:46:31.606Z,24.61
2023-03-21T09:49:00.249Z,24.51
2023-03-21T09:51:30.771Z,24.35
2023-03-21T09:54:00.331Z,24.38
2023-03-21T09:56:27.422Z,24.38
2023-03-21T09:58:57.008Z,24.75
2023-03-21T10:01:26.923Z,24.60
2023-03-21T10:03:54.545Z,24.56
2023-03-21T10:06:22.356Z,24.53
2023-03-21T10:08:49.617Z,24.40
2023-03-21T10:11:19.028Z,24.32
2023-03-21T10:13:48.646Z,24.48
2023-03-21T10:16:16.794Z,24.86
2023-03-21T10:18:45.721Z,24.52
2023-03-21T10:21:37.378Z,24.69
2023-03-21T10:24:04.742Z,24.59
2023-03-21T10:26:31.849Z,24.96
2023-03-21T10:29:00.890Z,24.76
2023-03-21T10:31:29.409Z,24.77
2023-03-21T10:34:01.317Z,24.78
2023-03-21T10:36:30.047Z,24.73
2023-03-21T10:39:00.777Z,25.06
2023-03-21T10:41:28.232Z,25.01
2023-03-21T10:44:05.620Z,24.86
2023-03-21T10:46:34.848Z,24.77
2023-03-21T10:49:07.275Z,24.65
2023-03-21T10:51:37.041Z,24.67
2023-03-21T10:54:05.961Z,25.21
2023-03-21T10:56:36.601Z,24.91
2023-03-21T10:59:06.704Z,24.81
2023-03-21T11:01:37.025Z,24.75
2023-03-21T11:04:09.915Z,24.69
2023-03-21T11:06:38.565Z,24.79
2023-03-21T11:09:08.211Z,24.98
2023-03-21T11:11:37.230Z,24.79
2023-03-21T11:14:05.207Z,24.73
2023-03-21T11:16:37.880Z,24.67
2023-03-21T11:19:15.306Z,24.69
2023-03-21T11:21:42.541Z,24.70
2023-03-21T11:24:12.951Z,25.15
2023-03-21T11:26:40.067Z,24.89
2023-03-21T11:29:12.646Z,24.84
2023-03-21T11:31:40.807Z,24.77
2023-03-21T11:34:08.677Z,24.75
2023-03-21T11:36:38.144Z,24.75
2023-03-21T11:39:24.925Z,24.78
2023-03-21T11:41:52.282Z,24.75
2023-03-21T11:44:27.147Z,24.73
2023-03-21T11:46:54.810Z,24.71
2023-03-21T11:49:22.217Z,24.71
2023-03-21T11:51:54.146Z,24.72
2023-03-21T11:54:25.591Z,24.74
2023-03-21T11:56:53.873Z,24.77
2023-03-21T11:59:29.080Z,24.66
2023-03-21T12:02:05.784Z,24.67
2023-03-21T12:04:40.377Z,24.76
2023-03-21T12:07:16.530Z,24.71
2023-03-21T12:09:44.926Z,24.70
2023-03-21T12:12:33.019Z,24.70
2023-03-21T12:15:10.287Z,24.70
2023-03-21T12:17:41.132Z,24.70
2023-03-21T12:20:22.678Z,24.75
2023-03-21T12:22:56.613Z,24.73
2023-03-21T12:25:27.465Z,24.73
2023-03-21T12:28:03.890Z,24.74
2023-03-21T12:30:33.713Z,24.75
2023-03-21T12:33:10.570Z,24.79
2023-03-21T12:35:44.780Z,24.76
2023-03-21T12:38:18.114Z,24.75
2023-03-21T12:40:53.549Z,24.77
2023-03-21T12:43:27.376Z,24.77
2023-03-21T12:45:55.986Z,24.76
2023-03-21T12:48:27.086Z,24.74
2023-03-21T12:50:56.026Z,24.57
2023-03-21T12:53:32.751Z,24.71
2023-03-21T12:56:01.472Z,24.74
2023-03-21T12:58:30.909Z,24.71
2023-03-21T13:00:59.664Z,24.71
2023-03-21T13:03:39.295Z,24.70
2023-03-21T13:06:09.296Z,24.78
2023-03-21T13:08:39.888Z,24.84
2023-03-21T13:11:07.703Z,24.80
2023-03-21T13:13:36.899Z,24.92
2023-03-21T13:16:07.835Z,24.76
2023-03-21T13:18:55.402Z,24.78
2023-03-21T13:21:27.506Z,24.78
2023-03-21T13:24:02.715Z,24.76
2023-03-21T13:26:34.251Z,24.78
2023-03-21T13:29:01.367Z,24.89
2023-03-21T13:31:31.941Z,24.87
2023-03-21T13:34:03.601Z,24.83
2023-03-21T13:36:31.856Z,24.83
2023-03-21T13:39:00.921Z,24.84
2023-03-21T13:41:31.970Z,24.84
2023-03-21T13:44:08.614Z,24.80
2023-03-21T13:46:52.269Z,24.76
2023-03-21T13:49:26.527Z,24.72
2023-03-21T13:51:54.684Z,24.71
2023-03-21T13:54:23.201Z,24.57
2023-03-21T13:56:53.882Z,24.60
2023-03-21T13:59:36.266Z,24.73
2023-03-21T14:02:13.447Z,24.69
2023-03-21T14:04:53.339Z,24.74
2023-03-21T14:07:23.459Z,24.76
2023-03-21T14:09:52.449Z,24.78
2023-03-21T14:12:24.699Z,24.73
2023-03-21T14:14:54.138Z,24.77
2023-03-21T14:17:25.767Z,24.78
2023-03-21T14:19:53.434Z,24.77
2023-03-21T14:22:21.116Z,24.75
2023-03-21T14:24:48.975Z,24.86
2023-03-21T14:27:16.050Z,24.77
2023-03-21T14:29:44.581Z,24.78
2023-03-21T14:32:18.214Z,24.77
2023-03-21T14:34:45.765Z,24.86
2023-03-21T14:37:13.096Z,24.76
2023-03-21T14:39:40.159Z,24.76
2023-03-21T14:42:12.767Z,24.77
2023-03-21T14:44:53.945Z,24.75
2023-03-21T14:47:25.016Z,24.70
2023-03-21T14:49:52.393Z,24.60
2023-03-21T14:52:22.323Z,24.49
2023-03-21T14:54:49.899Z,24.45
2023-03-21T14:57:20.326Z,24.39
2023-03-21T14:59:48.558Z,24.38
2023-03-21T15:02:17.108Z,24.36
2023-03-21T15:04:47.974Z,24.33
2023-03-21T15:07:24.351Z,24.33
2023-03-21T15:09:53.911Z,24.30
2023-03-21T15:12:20.982Z,24.24
2023-03-21T15:14:48.312Z,24.23
2023-03-21T15:17:16.104Z,24.22
2023-03-21T15:19:43.321Z,24.23
2023-03-21T15:22:15.804Z,24.22
2023-03-21T15:24:45.768Z,24.26
2023-03-21T15:27:14.775Z,24.30
2023-03-21T15:29:42.629Z,24.35
2023-03-21T15:32:13.914Z,24.37
2023-03-21T15:34:41.118Z,24.38
2023-03-21T15:37:14.476Z,24.39
2023-03-21T15:39:43.071Z,24.39
2023-03-21T15:42:23.516Z,24.41
2023-03-21T15:44:52.656Z,24.41
2023-03-21T15:47:34.419Z,24.46
2023-03-21T15:50:07.420Z,24.21
2023-03-21T15:52:35.075Z,24.34
2023-03-21T15:55:11.526Z,24.39
2023-03-21T15:57:44.117Z,24.43
2023-03-21T16:00:18.829Z,24.46
2023-03-21T16:02:45.852Z,24.48
2023-03-21T16:05:23.157Z,24.53
2023-03-21T16:07:50.338Z,24.52
2023-03-21T16:10:26.712Z,24.49
2023-03-21T16:12:53.792Z,24.53
2023-03-21T16:15:20.927Z,24.53
2023-03-21T16:17:51.091Z,24.59
2023-03-21T16:20:19.934Z,24.58
2023-03-21T16:22:47.362Z,24.58
2023-03-21T16:25:14.605Z,24.58
2023-03-21T16:27:43.111Z,24.58
2023-03-21T16:30:12.037Z,24.57
2023-03-21T16:32:39.213Z,24.61
2023-03-21T16:35:06.669Z,24.58
2023-03-21T16:37:33.864Z,24.61
2023-03-21T16:40:01.027Z,24.57
2023-03-21T16:42:28.691Z,24.58
2023-03-21T16:44:57.226Z,24.59
2023-03-21T16:47:24.396Z,24.59
2023-03-21T16:49:51.492Z,24.60
2023-03-21T16:52:18.615Z,24.68
2023-03-21T16:54:45.732Z,24.65
2023-03-21T16:57:19.885Z,24.64
2023-03-21T16:59:46.955Z,24.61
2023-03-21T17:02:16.087Z,24.72
2023-03-21T17:04:43.223Z,24.70
2023-03-21T17:07:11.448Z,24.67
2023-03-21T17:09:38.562Z,24.70
2023-03-21T17:12:06.230Z,24.70
2023-03-21T17:14:33.443Z,24.64
2023-03-21T17:17:00.592Z,24.65
2023-03-21T17:19:29.214Z,24.71
2023-03-21T17:21:56.266Z,24.73
2023-03-21T17:24:23.340Z,24.69
2023-03-21T17:26:53.388Z,24.70
2023-03-21T17:29:20.478Z,24.69
2023-03-21T17:31:47.578Z,24.73
2023-03-21T17:34:14.760Z,24.73
2023-03-21T17:36:44.500Z,24.77
2023-03-21T17:39:14.624Z,24.72
2023-03-21T17:41:41.715Z,24.74
2023-03-21T17:44:08.825Z,24.74
2023-03-21T17:46:37.037Z,24.72
2023-03-21T17:49:05.137Z,24.75
2023-03-21T17:51:32.369Z,24.71
2023-03-21T17:54:00.993Z,24.76
2023-03-21T17:56:28.942Z,24.73
2023-03-21T17:58:56.933Z,24.76
2023-03-21T18:01:24.026Z,24.73
2023-03-21T18:03:51.186Z,24.72
2023-03-21T18:06:19.417Z,24.72
2023-03-21T18:08:47.254Z,24.78
2023-03-21T18:11:16.549Z,24.78
2023-03-21T18:13:43.982Z,24.79
2023-03-21T18:16:12.592Z,24.78
2023-03-21T18:18:39.816Z,24.76
2023-03-21T18:21:07.247Z,24.77
2023-03-21T18:23:34.374Z,24.76
2023-03-21T18:26:01.470Z,24.74
2023-03-21T18:28:30.994Z,24.70
2023-03-21T18:31:10.309Z,24.74
2023-03-21T18:33:40.823Z,24.78
2023-03-21T18:36:08.592Z,24.74
2023-03-21T18:38:35.966Z,24.78
2023-03-21T18:41:03.177Z,24.78
2023-03-21T18:46:19.068Z,24.72
2023-03-21T18:48:46.847Z,24.76
2023-03-21T18:51:14.123Z,24.74
2023-03-21T18:53:41.292Z,24.73
2023-03-21T18:56:10.282Z,24.78
2023-03-21T18:58:39.122Z,24.76
2023-03-21T19:01:06.895Z,24.79
2023-03-21T19:03:36.985Z,24.78
2023-03-21T19:06:04.951Z,24.82
2023-03-21T19:08:32.218Z,24.84
2023-03-21T19:11:04.373Z,24.79
2023-03-21T19:13:33.236Z,24.82
2023-03-21T19:16:02.777Z,24.88
2023-03-21T19:18:50.293Z,24.87
2023-03-21T19:21:17.385Z,24.86
2023-03-21T19:24:20.836Z,24.85
2023-03-21T19:26:31.492Z,24.83
2023-03-21T19:28:59.080Z,24.77
2023-03-21T19:31:28.308Z,24.86
2023-03-21T19:33:55.384Z,24.84
2023-03-21T19:36:23.657Z,24.76
2023-03-21T19:38:52.104Z,24.82
2023-03-21T19:41:20.211Z,24.80
2023-03-21T19:43:54.578Z,24.78
2023-03-21T19:46:22.534Z,24.83
2023-03-21T19:48:51.295Z,24.85
2023-03-21T19:51:28.342Z,24.82
2023-03-21T19:53:56.715Z,24.80
2023-03-21T19:56:26.786Z,24.80
2023-03-21T19:58:54.819Z,24.80
2023-03-21T20:01:22.321Z,24.83
2023-03-21T20:03:49.535Z,24.84
2023-03-21T20:06:18.127Z,24.84
2023-03-21T20:11:32.600Z,24.78
2023-03-21T20:13:59.808Z,24.83
2023-03-21T20:16:34.147Z,24.80
2023-03-21T20:19:02.654Z,24.76
2023-03-21T20:21:36.622Z,24.77
2023-03-21T20:24:11.526Z,24.78
2023-03-21T20:26:38.610Z,24.78
2023-03-21T20:29:48.416Z,24.75
2023-03-21T20:31:52.756Z,24.73
2023-03-21T20:34:21.161Z,24.71
2023-03-21T20:36:49.791Z,24.75
2023-03-21T20:39:16.871Z,24.71
2023-03-21T20:41:44.050Z,24.74
2023-03-21T20:46:58.141Z,24.72
2023-03-21T20:49:25.330Z,24.74
2023-03-21T20:52:46.243Z,24.72
2023-03-21T20:54:40.971Z,24.71
2023-03-21T20:57:09.060Z,24.70
2023-03-21T20:59:36.318Z,24.70
2023-03-21T21:02:03.425Z,24.70
2023-03-21T21:05:05.157Z,24.68
2023-03-21T21:07:19.921Z,24.69
2023-03-21T21:09:47.229Z,24.69
2023-03-21T21:12:15.148Z,24.69
2023-03-21T21:14:42.332Z,24.67
2023-03-21T21:19:56.827Z,24.67
2023-03-21T21:22:25.306Z,24.67
2023-03-21T21:24:52.423Z,24.70
2023-03-21T21:27:19.890Z,24.71
2023-03-21T21:29:46.981Z,24.74
2023-03-21T21:32:14.074Z,24.75
2023-03-21T21:34:41.147Z,24.75
2023-03-21T21:37:08.179Z,24.78
2023-03-21T21:39:36.725Z,24.85
2023-03-21T21:42:03.974Z,24.80
2023-03-21T21:44:31.027Z,24.78
2023-03-21T21:46:58.105Z,24.81
2023-03-21T21:49:25.323Z,24.77
2023-03-21T21:51:52.362Z,24.68
2023-03-21T21:54:19.395Z,24.60
2023-03-21T21:56:47.905Z,24.53
2023-03-21T21:59:15.336Z,24.49
2023-03-21T22:01:42.471Z,24.47
2023-03-21T22:04:10.121Z,24.43
2023-03-21T22:06:37.567Z,24.45
2023-03-21T22:09:04.852Z,24.41
2023-03-21T22:11:32.127Z,24.42
2023-03-21T22:14:00.628Z,24.38
2023-03-21T22:16:27.785Z,24.36
2023-03-21T22:18:56.195Z,24.35
2023-03-21T22:21:23.541Z,24.38
2023-03-21T22:23:51.237Z,24.43
2023-03-21T22:26:18.397Z,24.48
2023-03-21T22:28:45.637Z,24.47
2023-03-21T22:31:14.824Z,24.52
2023-03-21T22:33:42.097Z,24.53
2023-03-21T22:36:09.627Z,24.55
2023-03-21T22:38:36.691Z,24.57
2023-03-21T22:41:04.940Z,24.58
2023-03-21T22:43:32.051Z,24.59
2023-03-21T22:45:59.145Z,24.59
2023-03-21T22:48:28.218Z,24.56
2023-03-21T22:50:55.558Z,24.60
2023-03-21T22:53:22.760Z,24.61
2023-03-21T22:55:49.868Z,24.60
2023-03-21T22:58:18.076Z,24.58
2023-03-21T23:00:45.150Z,24.59
2023-03-21T23:03:12.202Z,24.60
2023-03-21T23:05:41.841Z,24.60
2023-03-21T23:08:09.449Z,24.60
2023-03-21T23:10:37.607Z,24.59
2023-03-21T23:13:04.868Z,24.61
2023-03-21T23:15:32.118Z,24.59
2023-03-21T23:17:59.281Z,24.60
2023-03-21T23:20:26.473Z,24.59
2023-03-21T23:22:55.101Z,24.60
2023-03-21T23:25:22.208Z,24.62
2023-03-21T23:27:49.782Z,24.66
2023-03-21T23:30:17.206Z,24.63
2023-03-21T23:32:44.239Z,24.62
2023-03-21T23:35:11.351Z,24.61
2023-03-21T23:37:38.430Z,24.61
2023-03-21T23:40:07.777Z,24.65
2023-03-21T23:42:35.356Z,24.62
2023-03-21T23:45:02.437Z,24.65
2023-03-21T23:47:30.149Z,24.63
2023-03-21T23:49:57.474Z,24.63
2023-03-21T23:52:24.540Z,24.64
2023-03-21T23:54:51.585Z,24.66
2023-03-21T23:57:20.414Z,24.63
2023-03-21T23:59:47.489Z,24.60
